createdAt,value
2023-03-14T00:00:00.806Z,0.06
2023-03-14T00:01:10.325Z,0.08
2023-03-14T00:02:12.286Z,-0.10
2023-03-14T00:03:14.087Z,-0.05
2023-03-14T00:04:15.893Z,-0.32
2023-03-14T00:05:17.700Z,-0.32
2023-03-14T00:06:19.606Z,-0.26
2023-03-14T00:07:21.597Z,-0.63
2023-03-14T00:08:23.306Z,-0.20
2023-03-14T00:09:25.062Z,-0.19
2023-03-14T00:10:26.836Z,-1.30
2023-03-14T00:11:28.631Z,-0.36
2023-03-14T00:12:30.499Z,-1.38
2023-03-14T00:13:32.254Z,-0.14
2023-03-14T00:14:34.163Z,-0.39
2023-03-14T00:15:36.828Z,-0.93
2023-03-14T00:16:38.716Z,-0.46
2023-03-14T00:17:40.856Z,-0.13
2023-03-14T00:18:42.793Z,-0.27
2023-03-14T00:19:44.614Z,-0.28
2023-03-14T00:20:46.425Z,-0.29
2023-03-14T00:21:48.386Z,-1.60
2023-03-14T00:22:50.114Z,-0.14
2023-03-14T00:23:52.665Z,-0.09
2023-03-14T00:24:54.502Z,-0.51
2023-03-14T00:26:04.797Z,-0.49
2023-03-14T00:27:06.606Z,-0.28
2023-03-14T00:28:08.362Z,-1.60
2023-03-14T00:29:10.094Z,-0.36
2023-03-14T00:30:12.044Z,-0.16
2023-03-14T00:31:16.684Z,-0.57
2023-03-14T00:32:18.567Z,-1.33
2023-03-14T00:33:21.845Z,-1.07
2023-03-14T00:34:23.867Z,-0.11
2023-03-14T00:35:25.738Z,-0.27
2023-03-14T00:36:27.493Z,-0.68
2023-03-14T00:37:29.343Z,-0.42
2023-03-14T00:38:32.865Z,-1.31
2023-03-14T00:39:34.728Z,-0.10
2023-03-14T00:40:40.518Z,-0.38
2023-03-14T00:41:42.273Z,-0.39
2023-03-14T00:42:44.415Z,-0.47
2023-03-14T00:43:46.908Z,-0.64
2023-03-14T00:44:48.706Z,-0.82
2023-03-14T00:45:54.098Z,-0.38
2023-03-14T00:46:55.983Z,-0.48
2023-03-14T00:47:57.917Z,-0.57
2023-03-14T00:48:59.716Z,-0.46
2023-03-14T00:50:01.496Z,-0.62
2023-03-14T00:51:05.041Z,-0.35
2023-03-14T00:52:06.787Z,-0.32
2023-03-14T00:53:08.632Z,-0.44
2023-03-14T00:54:10.651Z,-0.19
2023-03-14T00:55:12.464Z,-0.21
2023-03-14T00:56:14.585Z,-1.07
2023-03-14T00:57:16.349Z,-0.12
2023-03-14T00:58:19.452Z,-0.26
2023-03-14T00:59:21.269Z,-0.24
2023-03-14T01:00:23.317Z,-0.26
2023-03-14T01:01:25.519Z,-0.46
2023-03-14T01:02:27.426Z,-0.18
2023-03-14T01:03:29.350Z,-0.41
2023-03-14T01:04:31.192Z,-0.51
2023-03-14T01:05:33.561Z,-1.33
2023-03-14T01:06:35.585Z,-0.30
2023-03-14T01:07:38.180Z,-0.17
2023-03-14T01:08:40.455Z,-0.19
2023-03-14T01:09:42.226Z,-0.15
2023-03-14T01:10:44.222Z,-0.54
2023-03-14T01:11:46.046Z,-0.40
2023-03-14T01:12:48.036Z,-1.24
2023-03-14T01:13:50.977Z,-0.35
2023-03-14T01:14:52.742Z,-0.39
2023-03-14T01:15:54.607Z,-0.43
2023-03-14T01:16:56.586Z,-0.36
2023-03-14T01:17:58.616Z,-0.22
2023-03-14T01:19:00.444Z,-0.32
2023-03-14T01:20:02.564Z,-0.69
2023-03-14T01:21:10.334Z,-0.48
2023-03-14T01:22:12.071Z,-0.63
2023-03-14T01:23:13.864Z,-0.69
2023-03-14T01:24:15.595Z,-0.59
2023-03-14T01:25:18.251Z,-1.00
2023-03-14T01:26:23.173Z,-0.60
2023-03-14T01:27:24.957Z,-0.40
2023-03-14T01:28:27.425Z,-0.75
2023-03-14T01:29:29.369Z,-0.64
2023-03-14T01:30:31.221Z,-0.50
2023-03-14T01:31:33.158Z,-1.22
2023-03-14T01:32:35.385Z,-0.38
2023-03-14T01:33:37.897Z,-1.59
2023-03-14T01:34:39.692Z,-1.64
2023-03-14T01:35:41.610Z,-1.07
2023-03-14T01:36:43.426Z,-0.78
2023-03-14T01:37:45.446Z,-0.73
2023-03-14T01:38:47.791Z,-1.99
2023-03-14T01:39:49.566Z,-0.99
2023-03-14T01:40:51.570Z,-1.22
2023-03-14T01:41:53.392Z,-1.08
2023-03-14T01:42:56.892Z,-1.25
2023-03-14T01:43:59.018Z,-1.25
2023-03-14T01:45:02.525Z,-1.17
2023-03-14T01:46:07.041Z,-0.91
2023-03-14T01:47:08.901Z,-1.15
2023-03-14T01:48:10.688Z,-1.03
2023-03-14T01:49:16.345Z,-0.92
2023-03-14T01:50:18.162Z,-1.69
2023-03-14T01:51:43.586Z,-1.73
2023-03-14T01:52:51.622Z,-1.11
2023-03-14T01:54:03.626Z,-1.21
2023-03-14T01:55:10.545Z,-1.01
2023-03-14T01:56:15.909Z,-0.97
2023-03-14T01:57:24.677Z,-1.04
2023-03-14T01:58:30.485Z,-1.11
2023-03-14T01:59:33.872Z,-0.92
2023-03-14T02:00:35.778Z,-1.10
2023-03-14T02:01:40.507Z,-1.41
2023-03-14T02:02:56.627Z,-1.05
2023-03-14T02:04:02.595Z,-1.05
2023-03-14T02:05:05.602Z,-1.16
2023-03-14T02:06:09.597Z,-1.49
2023-03-14T02:07:18.538Z,-1.37
2023-03-14T02:08:22.512Z,-1.53
2023-03-14T02:09:24.756Z,-1.11
2023-03-14T02:10:33.226Z,-1.24
2023-03-14T02:11:35.532Z,-1.05
2023-03-14T02:12:37.998Z,-1.07
2023-03-14T02:13:40.070Z,-2.03
2023-03-14T02:14:42.440Z,-1.09
2023-03-14T02:15:44.505Z,-2.05
2023-03-14T02:16:46.712Z,-1.10
2023-03-14T02:17:49.026Z,-1.20
2023-03-14T02:18:51.033Z,-1.97
2023-03-14T02:20:01.798Z,-1.25
2023-03-14T02:21:21.110Z,-2.00
2023-03-14T02:22:23.218Z,-1.20
2023-03-14T02:23:46.330Z,-1.12
2023-03-14T02:24:58.878Z,-1.24
2023-03-14T02:26:36.387Z,-1.17
2023-03-14T02:27:39.344Z,-1.36
2023-03-14T02:28:41.146Z,-1.25
2023-03-14T02:29:54.165Z,-1.30
2023-03-14T02:30:55.952Z,-1.05
2023-03-14T02:31:57.738Z,-1.03
2023-03-14T02:33:07.837Z,-1.07
2023-03-14T02:34:09.603Z,-1.14
2023-03-14T02:35:15.365Z,-1.13
2023-03-14T02:36:20.299Z,-1.13
2023-03-14T02:37:26.808Z,-1.22
2023-03-14T02:39:00.652Z,-1.13
2023-03-14T02:40:18.021Z,-1.32
2023-03-14T02:41:19.905Z,-1.39
2023-03-14T02:42:22.817Z,-1.39
2023-03-14T02:43:24.846Z,-1.56
2023-03-14T02:44:26.679Z,-1.75
2023-03-14T02:45:44.352Z,-1.59
2023-03-14T02:46:46.303Z,-1.50
2023-03-14T02:47:55.231Z,-1.59
2023-03-14T02:49:03.015Z,-1.48
2023-03-14T02:50:11.877Z,-1.31
2023-03-14T02:51:15.348Z,-1.36
2023-03-14T02:52:17.181Z,-1.27
2023-03-14T02:53:24.863Z,-1.21
2023-03-14T02:54:26.634Z,-1.15
2023-03-14T02:55:28.425Z,-1.20
2023-03-14T02:56:30.285Z,-1.41
2023-03-14T02:57:32.184Z,-2.28
2023-03-14T02:58:33.995Z,-1.67
2023-03-14T02:59:35.764Z,-1.41
2023-03-14T03:00:37.543Z,-1.64
2023-03-14T03:01:39.482Z,-2.63
2023-03-14T03:02:41.458Z,-1.84
2023-03-14T03:03:43.350Z,-1.90
2023-03-14T03:04:45.300Z,-2.25
2023-03-14T03:05:55.765Z,-2.67
2023-03-14T03:06:57.643Z,-1.87
2023-03-14T03:07:59.719Z,-1.74
2023-03-14T03:09:01.827Z,-1.66
2023-03-14T03:10:04.392Z,-1.85
2023-03-14T03:11:06.633Z,-1.66
2023-03-14T03:12:08.457Z,-1.60
2023-03-14T03:13:10.201Z,-1.58
2023-03-14T03:14:12.028Z,-2.42
2023-03-14T03:15:13.774Z,-1.40
2023-03-14T03:16:15.849Z,-1.54
2023-03-14T03:17:18.257Z,-1.39
2023-03-14T03:18:20.085Z,-1.55
2023-03-14T03:19:21.979Z,-1.60
2023-03-14T03:20:23.822Z,-2.68
2023-03-14T03:21:25.706Z,-1.81
2023-03-14T03:22:27.492Z,-1.90
2023-03-14T03:23:30.623Z,-2.53
2023-03-14T03:24:32.353Z,-2.14
2023-03-14T03:25:34.140Z,-2.03
2023-03-14T03:26:37.000Z,-1.87
2023-03-14T03:27:39.121Z,-1.83
2023-03-14T03:28:40.894Z,-1.90
2023-03-14T03:29:42.700Z,-1.86
2023-03-14T03:30:45.471Z,-2.48
2023-03-14T03:31:47.306Z,-1.71
2023-03-14T03:32:49.718Z,-1.77
2023-03-14T03:33:51.730Z,-1.80
2023-03-14T03:34:53.927Z,-1.67
2023-03-14T03:35:55.749Z,-2.29
2023-03-14T03:36:58.587Z,-2.73
2023-03-14T03:38:00.479Z,-1.71
2023-03-14T03:39:02.235Z,-1.57
2023-03-14T03:40:04.423Z,-1.76
2023-03-14T03:41:08.019Z,-1.79
2023-03-14T03:42:09.929Z,-2.06
2023-03-14T03:43:11.859Z,-2.02
2023-03-14T03:44:13.776Z,-1.89
2023-03-14T03:45:15.614Z,-1.84
2023-03-14T03:46:17.599Z,-1.83
2023-03-14T03:47:19.525Z,-1.87
2023-03-14T03:48:21.283Z,-1.91
2023-03-14T03:49:23.626Z,-1.95
2023-03-14T03:50:25.611Z,-2.05
2023-03-14T03:51:28.310Z,-1.87
2023-03-14T03:52:30.296Z,-2.65
2023-03-14T03:53:33.809Z,-1.82
2023-03-14T03:54:36.711Z,-1.79
2023-03-14T03:55:38.725Z,-1.90
2023-03-14T03:56:40.462Z,-1.83
2023-03-14T03:57:42.249Z,-1.84
2023-03-14T03:58:44.758Z,-1.76
2023-03-14T03:59:46.574Z,-2.90
2023-03-14T04:00:48.387Z,-1.78
2023-03-14T04:01:50.267Z,-1.80
2023-03-14T04:02:52.502Z,-1.72
2023-03-14T04:03:54.612Z,-1.52
2023-03-14T04:04:56.590Z,-1.61
2023-03-14T04:06:08.028Z,-1.65
2023-03-14T04:07:09.829Z,-1.91
2023-03-14T04:08:11.620Z,-1.75
2023-03-14T04:09:13.674Z,-2.58
2023-03-14T04:10:16.237Z,-2.51
2023-03-14T04:11:18.327Z,-1.79
2023-03-14T04:12:20.260Z,-1.94
2023-03-14T04:13:22.094Z,-1.64
2023-03-14T04:14:24.122Z,-1.58
2023-03-14T04:15:25.931Z,-1.68
2023-03-14T04:16:27.919Z,-1.67
2023-03-14T04:17:29.605Z,-1.86
2023-03-14T04:18:31.425Z,-1.66
2023-03-14T04:19:33.359Z,-1.82
2023-03-14T04:20:36.261Z,-2.01
2023-03-14T04:21:38.265Z,-1.82
2023-03-14T04:22:40.725Z,-2.17
2023-03-14T04:23:43.355Z,-1.80
2023-03-14T04:24:45.267Z,-2.03
2023-03-14T04:25:47.312Z,-2.46
2023-03-14T04:26:49.168Z,-1.81
2023-03-14T04:27:53.330Z,-1.95
2023-03-14T04:28:55.321Z,-1.95
2023-03-14T04:29:57.132Z,-2.23
2023-03-14T04:30:59.284Z,-3.36
2023-03-14T04:32:01.061Z,-2.19
2023-03-14T04:33:03.072Z,-1.92
2023-03-14T04:34:04.879Z,-2.00
2023-03-14T04:35:07.381Z,-2.29
2023-03-14T04:36:10.394Z,-1.95
2023-03-14T04:37:12.233Z,-2.13
2023-03-14T04:38:14.896Z,-2.19
2023-03-14T04:39:16.682Z,-2.40
2023-03-14T04:40:19.309Z,-2.28
2023-03-14T04:41:21.205Z,-2.25
2023-03-14T04:42:23.028Z,-2.24
2023-03-14T04:43:24.863Z,-3.68
2023-03-14T04:44:26.813Z,-3.01
2023-03-14T04:45:28.605Z,-2.36
2023-03-14T04:46:30.564Z,-2.35
2023-03-14T04:47:32.396Z,-2.35
2023-03-14T04:48:34.186Z,-2.17
2023-03-14T04:49:35.985Z,-3.27
2023-03-14T04:50:37.756Z,-2.10
2023-03-14T04:51:39.531Z,-2.01
2023-03-14T04:52:41.565Z,-1.96
2023-03-14T04:53:43.405Z,-2.00
2023-03-14T04:54:45.357Z,-2.59
2023-03-14T04:55:52.045Z,-2.10
2023-03-14T04:56:53.884Z,-2.13
2023-03-14T04:57:55.918Z,-2.60
2023-03-14T04:58:57.685Z,-2.14
2023-03-14T04:59:59.480Z,-1.98
2023-03-14T05:01:05.339Z,-2.49
2023-03-14T05:02:07.400Z,-1.83
2023-03-14T05:03:09.226Z,-2.07
2023-03-14T05:04:11.126Z,-1.67
2023-03-14T05:05:13.212Z,-1.64
2023-03-14T05:06:15.212Z,-1.57
2023-03-14T05:07:17.083Z,-1.87
2023-03-14T05:08:18.942Z,-2.40
2023-03-14T05:09:20.749Z,-3.16
2023-03-14T05:10:22.585Z,-2.23
2023-03-14T05:11:24.348Z,-2.19
2023-03-14T05:12:26.158Z,-2.39
2023-03-14T05:13:27.911Z,-2.16
2023-03-14T05:14:29.721Z,-2.09
2023-03-14T05:15:31.636Z,-1.84
2023-03-14T05:16:33.716Z,-1.88
2023-03-14T05:17:36.198Z,-1.69
2023-03-14T05:18:38.853Z,-2.78
2023-03-14T05:19:41.249Z,-1.37
2023-03-14T05:20:43.142Z,-1.27
2023-03-14T05:21:44.858Z,-1.19
2023-03-14T05:22:46.701Z,-1.22
2023-03-14T05:23:48.475Z,-1.23
2023-03-14T05:24:50.396Z,-1.06
2023-03-14T05:25:52.153Z,-1.11
2023-03-14T05:26:54.632Z,-0.97
2023-03-14T05:27:56.901Z,-1.06
2023-03-14T05:28:58.831Z,-1.77
2023-03-14T05:30:00.645Z,-1.22
2023-03-14T05:31:02.496Z,-0.92
2023-03-14T05:32:04.288Z,-0.96
2023-03-14T05:33:06.070Z,-0.73
2023-03-14T05:34:07.872Z,-0.68
2023-03-14T05:35:10.918Z,-0.88
2023-03-14T05:36:13.198Z,-0.60
2023-03-14T05:37:15.016Z,-1.65
2023-03-14T05:38:16.794Z,-0.70
2023-03-14T05:39:18.758Z,-0.74
2023-03-14T05:40:20.635Z,-0.48
2023-03-14T05:41:22.688Z,-1.04
2023-03-14T05:42:24.450Z,-0.98
2023-03-14T05:43:26.267Z,-0.75
2023-03-14T05:44:28.060Z,-0.94
2023-03-14T05:45:29.987Z,-0.64
2023-03-14T05:46:31.938Z,-0.38
2023-03-14T05:47:33.770Z,-0.30
2023-03-14T05:48:35.549Z,-0.54
2023-03-14T05:49:37.298Z,-0.51
2023-03-14T05:50:39.563Z,-0.32
2023-03-14T05:51:41.365Z,-0.29
2023-03-14T05:52:43.147Z,-0.45
2023-03-14T05:53:44.856Z,-0.39
2023-03-14T05:54:46.704Z,-0.35
2023-03-14T05:55:48.536Z,-0.07
2023-03-14T05:56:50.285Z,-0.96
2023-03-14T05:57:52.121Z,-0.08
2023-03-14T05:58:53.949Z,-0.45
2023-03-14T05:59:55.933Z,-0.12
2023-03-14T06:00:57.779Z,0.06
2023-03-14T06:01:59.806Z,-0.27
2023-03-14T06:03:01.727Z,-0.18
2023-03-14T06:04:03.616Z,-0.34
2023-03-14T06:05:06.162Z,-0.07
2023-03-14T06:06:08.188Z,0.07
2023-03-14T06:07:10.048Z,0.10
2023-03-14T06:08:11.790Z,-0.68
2023-03-14T06:09:13.540Z,0.07
2023-03-14T06:10:15.438Z,-0.15
2023-03-14T06:11:17.260Z,-0.05
2023-03-14T06:12:19.057Z,-0.13
2023-03-14T06:13:20.979Z,-0.14
2023-03-14T06:14:22.689Z,0.13
2023-03-14T06:15:24.430Z,-0.03
2023-03-14T06:16:26.329Z,-0.53
2023-03-14T06:17:28.199Z,-0.11
2023-03-14T06:18:29.956Z,-0.15
2023-03-14T06:19:31.874Z,0.09
2023-03-14T06:20:33.958Z,0.16
2023-03-14T06:21:35.776Z,0.34
2023-03-14T06:22:37.552Z,-1.24
2023-03-14T06:23:39.419Z,0.55
2023-03-14T06:24:41.241Z,0.43
2023-03-14T06:25:42.986Z,0.39
2023-03-14T06:26:44.796Z,0.43
2023-03-14T06:27:46.787Z,-0.20
2023-03-14T06:28:48.515Z,0.64
2023-03-14T06:29:50.309Z,0.77
2023-03-14T06:30:52.063Z,1.12
2023-03-14T06:31:53.882Z,0.98
2023-03-14T06:32:56.156Z,1.19
2023-03-14T06:33:58.028Z,1.12
2023-03-14T06:34:59.790Z,1.19
2023-03-14T06:36:01.646Z,1.27
2023-03-14T06:37:03.547Z,1.20
2023-03-14T06:38:05.456Z,1.47
2023-03-14T06:39:07.301Z,1.75
2023-03-14T06:40:11.297Z,1.79
2023-03-14T06:41:13.086Z,1.84
2023-03-14T06:42:14.898Z,1.90
2023-03-14T06:43:16.722Z,1.99
2023-03-14T06:44:18.568Z,2.05
2023-03-14T06:45:20.462Z,2.04
2023-03-14T06:46:22.302Z,1.76
2023-03-14T06:47:24.104Z,2.40
2023-03-14T06:48:25.937Z,2.70
2023-03-14T06:49:27.867Z,2.84
2023-03-14T06:50:29.784Z,2.87
2023-03-14T06:51:31.542Z,3.04
2023-03-14T06:52:33.577Z,2.98
2023-03-14T06:53:35.520Z,2.80
2023-03-14T06:54:37.355Z,2.60
2023-03-14T06:55:39.175Z,2.83
2023-03-14T06:56:40.890Z,3.13
2023-03-14T06:57:42.701Z,2.48
2023-03-14T06:58:44.501Z,3.19
2023-03-14T06:59:46.247Z,3.29
2023-03-14T07:00:48.094Z,3.36
2023-03-14T07:01:49.858Z,3.31
2023-03-14T07:02:51.685Z,3.33
2023-03-14T07:03:53.465Z,3.57
2023-03-14T07:04:55.275Z,3.23
2023-03-14T07:05:57.174Z,3.53
2023-03-14T07:06:59.003Z,3.49
2023-03-14T07:08:00.791Z,3.68
2023-03-14T07:09:03.807Z,3.75
2023-03-14T07:10:06.668Z,3.99
2023-03-14T07:11:08.674Z,3.93
2023-03-14T07:12:10.519Z,3.77
2023-03-14T07:13:12.278Z,3.65
2023-03-14T07:14:14.248Z,3.40
2023-03-14T07:15:19.086Z,3.82
2023-03-14T07:16:21.572Z,4.03
2023-03-14T07:17:23.361Z,3.92
2023-03-14T07:18:25.160Z,4.10
2023-03-14T07:19:26.965Z,4.24
2023-03-14T07:20:28.748Z,3.47
2023-03-14T07:21:30.698Z,4.49
2023-03-14T07:22:32.511Z,4.02
2023-03-14T07:23:35.048Z,4.31
2023-03-14T07:24:37.016Z,4.35
2023-03-14T07:25:38.965Z,4.43
2023-03-14T07:26:40.835Z,4.72
2023-03-14T07:27:45.567Z,4.07
2023-03-14T07:28:47.492Z,4.35
2023-03-14T07:29:49.308Z,4.36
2023-03-14T07:30:51.304Z,4.03
2023-03-14T07:31:53.296Z,4.56
2023-03-14T07:32:55.312Z,4.69
2023-03-14T07:33:57.440Z,4.60
2023-03-14T07:34:59.244Z,4.71
2023-03-14T07:36:01.614Z,4.95
2023-03-14T07:37:03.444Z,4.82
2023-03-14T07:38:05.302Z,5.29
2023-03-14T07:39:07.196Z,5.36
2023-03-14T07:40:09.896Z,5.76
2023-03-14T07:41:11.843Z,5.84
2023-03-14T07:42:13.709Z,5.35
2023-03-14T07:43:15.737Z,5.37
2023-03-14T07:44:17.646Z,5.65
2023-03-14T07:45:19.431Z,5.87
2023-03-14T07:46:21.441Z,5.38
2023-03-14T07:47:23.434Z,6.05
2023-03-14T07:48:25.748Z,6.29
2023-03-14T07:49:27.581Z,6.43
2023-03-14T07:50:29.479Z,5.58
2023-03-14T07:51:31.226Z,6.65
2023-03-14T07:52:33.206Z,7.05
2023-03-14T07:53:35.097Z,7.34
2023-03-14T07:54:36.943Z,7.41
2023-03-14T07:55:40.630Z,7.37
2023-03-14T07:56:42.383Z,6.93
2023-03-14T07:57:44.405Z,6.88
2023-03-14T07:58:46.433Z,7.23
2023-03-14T07:59:48.437Z,7.29
2023-03-14T08:00:51.291Z,7.43
2023-03-14T08:01:53.082Z,7.76
2023-03-14T08:02:54.871Z,7.45
2023-03-14T08:03:56.735Z,7.79
2023-03-14T08:04:58.782Z,7.69
2023-03-14T08:06:00.626Z,7.68
2023-03-14T08:07:02.564Z,7.86
2023-03-14T08:08:06.087Z,7.40
2023-03-14T08:09:07.993Z,7.38
2023-03-14T08:10:10.767Z,7.62
2023-03-14T08:11:12.563Z,7.80
2023-03-14T08:12:14.319Z,8.12
2023-03-14T08:13:16.388Z,8.37
2023-03-14T08:14:18.439Z,8.48
2023-03-14T08:15:20.480Z,8.68
2023-03-14T08:16:23.368Z,8.55
2023-03-14T08:18:02.330Z,8.99
2023-03-14T08:19:04.558Z,9.13
2023-03-14T08:20:07.352Z,9.20
2023-03-14T08:21:09.440Z,8.89
2023-03-14T08:22:11.362Z,9.28
2023-03-14T08:23:13.528Z,9.25
2023-03-14T08:24:15.583Z,9.49
2023-03-14T08:25:17.955Z,9.35
2023-03-14T08:26:19.764Z,9.51
2023-03-14T08:27:21.685Z,9.41
2023-03-14T08:28:23.597Z,9.41
2023-03-14T08:29:25.753Z,9.46
2023-03-14T08:30:27.600Z,9.77
2023-03-14T08:31:29.431Z,9.83
2023-03-14T08:32:31.451Z,9.81
2023-03-14T08:33:33.403Z,9.17
2023-03-14T08:34:35.484Z,9.26
2023-03-14T08:35:39.678Z,9.70
2023-03-14T08:36:42.001Z,9.81
2023-03-14T08:37:44.346Z,9.76
2023-03-14T08:38:46.398Z,9.60
2023-03-14T08:39:48.528Z,9.30
2023-03-14T08:40:50.474Z,9.23
2023-03-14T08:41:52.520Z,9.40
2023-03-14T08:42:54.683Z,9.41
2023-03-14T08:43:56.796Z,9.97
2023-03-14T08:44:58.772Z,10.02
2023-03-14T08:46:01.980Z,9.54
2023-03-14T08:47:03.989Z,10.49
2023-03-14T08:48:06.628Z,10.64
2023-03-14T08:49:08.435Z,10.88
2023-03-14T08:50:14.655Z,11.12
2023-03-14T08:51:17.830Z,11.23
2023-03-14T08:52:19.688Z,10.92
2023-03-14T08:53:21.553Z,11.13
2023-03-14T08:54:23.476Z,11.14
2023-03-14T08:55:25.313Z,11.34
2023-03-14T08:56:27.073Z,11.42
2023-03-14T08:57:28.870Z,11.24
2023-03-14T08:58:30.689Z,11.54
2023-03-14T08:59:32.450Z,11.28
2023-03-14T09:00:34.268Z,11.63
2023-03-14T09:01:36.119Z,11.72
2023-03-14T09:02:38.150Z,10.76
2023-03-14T09:03:40.264Z,10.58
2023-03-14T09:04:42.087Z,11.12
2023-03-14T09:05:43.861Z,11.47
2023-03-14T09:06:45.614Z,10.78
2023-03-14T09:07:47.452Z,11.39
2023-03-14T09:08:49.335Z,11.04
2023-03-14T09:09:51.145Z,11.77
2023-03-14T09:10:52.977Z,11.94
2023-03-14T09:11:54.792Z,12.02
2023-03-14T09:12:56.594Z,12.20
2023-03-14T09:13:58.555Z,12.24
2023-03-14T09:15:00.562Z,12.66
2023-03-14T09:16:02.321Z,12.65
2023-03-14T09:17:04.625Z,11.79
2023-03-14T09:18:06.387Z,12.30
2023-03-14T09:19:08.252Z,12.68
2023-03-14T09:20:12.754Z,11.99
2023-03-14T09:21:14.575Z,12.51
2023-03-14T09:22:16.424Z,11.83
2023-03-14T09:23:18.371Z,11.97
2023-03-14T09:24:20.158Z,12.52
2023-03-14T09:25:22.159Z,12.84
2023-03-14T09:26:23.884Z,12.79
2023-03-14T09:27:25.607Z,12.93
2023-03-14T09:28:27.993Z,13.05
2023-03-14T09:29:30.082Z,13.17
2023-03-14T09:30:31.858Z,12.91
2023-03-14T09:31:33.697Z,13.24
2023-03-14T09:32:35.625Z,13.21
2023-03-14T09:33:38.575Z,13.29
2023-03-14T09:34:40.340Z,13.09
2023-03-14T09:35:42.175Z,13.03
2023-03-14T09:36:44.123Z,13.03
2023-03-14T09:37:45.975Z,11.95
2023-03-14T09:38:48.044Z,13.10
2023-03-14T09:39:49.882Z,13.13
2023-03-14T09:40:51.946Z,13.20
2023-03-14T09:41:56.521Z,13.20
2023-03-14T09:42:58.509Z,12.95
2023-03-14T09:44:09.747Z,13.28
2023-03-14T09:45:24.515Z,13.42
2023-03-14T09:46:26.330Z,13.38
2023-03-14T09:47:28.958Z,12.63
2023-03-14T09:48:33.831Z,13.54
2023-03-14T09:49:40.314Z,13.70
2023-03-14T09:50:46.022Z,13.63
2023-03-14T09:51:50.906Z,13.85
2023-03-14T09:53:00.498Z,13.82
2023-03-14T09:54:02.796Z,13.61
2023-03-14T09:55:07.845Z,13.60
2023-03-14T09:56:34.863Z,13.75
2023-03-14T09:57:37.484Z,13.88
2023-03-14T09:58:43.558Z,14.13
2023-03-14T09:59:50.090Z,13.94
2023-03-14T10:00:56.475Z,14.15
2023-03-14T10:02:21.170Z,14.00
2023-03-14T10:03:36.078Z,14.09
2023-03-14T10:04:39.649Z,13.60
2023-03-14T10:05:42.905Z,13.43
2023-03-14T10:06:44.673Z,13.49
2023-03-14T10:07:46.540Z,12.57
2023-03-14T10:08:48.344Z,13.26
2023-03-14T10:09:52.501Z,12.53
2023-03-14T10:10:55.898Z,13.35
2023-03-14T10:12:01.865Z,13.62
2023-03-14T10:13:15.304Z,14.06
2023-03-14T10:14:45.254Z,13.30
2023-03-14T10:16:00.258Z,14.53
2023-03-14T10:17:10.520Z,14.72
2023-03-14T10:18:13.881Z,14.69
2023-03-14T10:19:17.722Z,14.88
2023-03-14T10:20:38.240Z,14.61
2023-03-14T10:21:42.498Z,13.81
2023-03-14T10:22:44.559Z,13.96
2023-03-14T10:23:48.512Z,14.56
2023-03-14T10:24:55.860Z,14.64
2023-03-14T10:26:14.770Z,14.89
2023-03-14T10:27:23.017Z,14.94
2023-03-14T10:28:30.447Z,15.21
2023-03-14T10:29:34.197Z,14.98
2023-03-14T10:30:46.748Z,15.12
2023-03-14T10:31:55.970Z,15.36
2023-03-14T10:32:58.039Z,15.50
2023-03-14T10:34:05.988Z,15.60
2023-03-14T10:35:16.785Z,16.01
2023-03-14T10:36:28.428Z,15.44
2023-03-14T10:37:30.372Z,15.07
2023-03-14T10:38:37.792Z,14.61
2023-03-14T10:39:50.196Z,14.75
2023-03-14T10:40:54.544Z,14.86
2023-03-14T10:42:04.750Z,14.82
2023-03-14T10:43:14.208Z,14.86
2023-03-14T10:44:20.953Z,14.33
2023-03-14T10:45:32.150Z,15.05
2023-03-14T10:46:34.046Z,15.08
2023-03-14T10:47:35.952Z,15.27
2023-03-14T10:48:39.667Z,14.85
2023-03-14T10:49:41.413Z,15.81
2023-03-14T10:50:50.628Z,16.06
2023-03-14T10:51:52.441Z,16.16
2023-03-14T10:53:03.637Z,15.86
2023-03-14T10:54:20.915Z,15.70
2023-03-14T10:55:25.588Z,15.89
2023-03-14T10:56:34.233Z,15.16
2023-03-14T10:57:43.136Z,15.74
2023-03-14T10:58:47.855Z,16.22
2023-03-14T10:59:49.714Z,15.97
2023-03-14T11:01:30.102Z,16.58
2023-03-14T11:02:59.582Z,17.03
2023-03-14T11:04:20.299Z,16.89
2023-03-14T11:05:36.976Z,16.03
2023-03-14T11:06:56.920Z,15.55
2023-03-14T11:08:10.606Z,16.30
2023-03-14T11:09:20.017Z,16.11
2023-03-14T11:10:35.092Z,16.01
2023-03-14T11:11:38.293Z,16.16
2023-03-14T11:12:48.298Z,15.68
2023-03-14T11:14:08.338Z,14.70
2023-03-14T11:15:46.890Z,15.48
2023-03-14T11:17:11.263Z,15.32
2023-03-14T11:18:50.736Z,16.07
2023-03-14T11:20:01.633Z,16.30
2023-03-14T11:21:33.524Z,16.66
2023-03-14T11:22:47.742Z,17.00
2023-03-14T11:23:58.705Z,16.86
2023-03-14T11:25:23.780Z,16.97
2023-03-14T11:26:25.467Z,17.34
2023-03-14T11:27:44.243Z,16.97
2023-03-14T11:29:24.514Z,17.39
2023-03-14T11:30:51.981Z,17.36
2023-03-14T11:31:57.276Z,17.65
2023-03-14T11:33:22.063Z,17.42
2023-03-14T11:34:34.076Z,17.34
2023-03-14T11:35:59.112Z,17.72
2023-03-14T11:37:05.971Z,17.79
2023-03-14T11:38:35.223Z,17.24
2023-03-14T11:39:48.319Z,17.85
2023-03-14T11:40:52.551Z,18.14
2023-03-14T11:41:55.201Z,17.50
2023-03-14T11:43:30.535Z,18.74
2023-03-14T11:44:38.344Z,18.74
2023-03-14T11:45:43.340Z,18.77
2023-03-14T11:46:50.474Z,18.58
2023-03-14T11:48:17.705Z,18.56
2023-03-14T11:49:46.954Z,19.03
2023-03-14T11:50:54.230Z,18.36
2023-03-14T11:52:00.125Z,18.73
2023-03-14T11:53:15.255Z,18.79
2023-03-14T11:54:31.760Z,18.80
2023-03-14T11:55:38.494Z,19.39
2023-03-14T11:57:00.816Z,18.85
2023-03-14T11:58:20.071Z,19.17
2023-03-14T11:59:46.846Z,18.65
2023-03-14T12:00:51.715Z,19.36
2023-03-14T12:02:33.476Z,18.81
2023-03-14T12:03:44.415Z,18.46
2023-03-14T12:05:12.680Z,19.18
2023-03-14T12:06:29.242Z,18.71
2023-03-14T12:07:56.859Z,18.35
2023-03-14T12:09:06.657Z,18.90
2023-03-14T12:10:08.560Z,17.00
2023-03-14T12:11:16.452Z,17.26
2023-03-14T12:12:23.563Z,18.50
2023-03-14T12:13:37.687Z,18.42
2023-03-14T12:14:47.945Z,18.75
2023-03-14T12:15:57.506Z,19.14
2023-03-14T12:17:07.481Z,18.93
2023-03-14T12:18:39.671Z,19.21
2023-03-14T12:19:42.380Z,19.48
2023-03-14T12:20:54.508Z,19.18
2023-03-14T12:22:01.656Z,19.72
2023-03-14T12:23:06.608Z,19.94
2023-03-14T12:24:25.382Z,19.57
2023-03-14T12:25:30.810Z,19.91
2023-03-14T12:26:53.190Z,19.54
2023-03-14T12:27:57.937Z,17.96
2023-03-14T12:29:05.790Z,18.78
2023-03-14T12:30:18.819Z,18.82
2023-03-14T12:31:32.505Z,17.93
2023-03-14T12:32:34.496Z,19.31
2023-03-14T12:33:36.397Z,19.11
2023-03-14T12:34:43.911Z,18.79
2023-03-14T12:35:54.222Z,18.36
2023-03-14T12:37:07.476Z,18.87
2023-03-14T12:38:36.639Z,18.73
2023-03-14T12:40:07.260Z,18.46
2023-03-14T12:41:18.334Z,18.59
2023-03-14T12:42:44.565Z,18.76
2023-03-14T12:43:47.669Z,18.82
2023-03-14T12:44:51.627Z,17.92
2023-03-14T12:46:10.268Z,19.12
2023-03-14T12:47:18.071Z,19.41
2023-03-14T12:48:27.421Z,19.05
2023-03-14T12:49:33.834Z,19.37
2023-03-14T12:50:43.213Z,18.53
2023-03-14T12:51:45.265Z,19.60
2023-03-14T12:52:52.940Z,19.72
2023-03-14T12:54:19.327Z,19.74
2023-03-14T12:55:30.182Z,19.12
2023-03-14T12:56:57.956Z,19.49
2023-03-14T12:58:29.022Z,19.19
2023-03-14T12:59:49.023Z,19.32
2023-03-14T13:01:06.332Z,19.68
2023-03-14T13:02:07.985Z,19.45
2023-03-14T13:03:21.750Z,19.67
2023-03-14T13:04:40.202Z,19.96
2023-03-14T13:06:02.573Z,19.78
2023-03-14T13:07:05.342Z,20.10
2023-03-14T13:08:10.616Z,19.89
2023-03-14T13:09:36.785Z,18.92
2023-03-14T13:10:49.144Z,19.25
2023-03-14T13:11:51.148Z,19.40
2023-03-14T13:13:03.588Z,19.66
2023-03-14T13:14:11.410Z,19.72
2023-03-14T13:15:28.436Z,19.81
2023-03-14T13:16:30.569Z,19.92
2023-03-14T13:17:36.935Z,20.04
2023-03-14T13:19:12.983Z,20.23
2023-03-14T13:20:24.274Z,20.20
2023-03-14T13:21:29.423Z,20.53
2023-03-14T13:22:35.085Z,20.26
2023-03-14T13:23:39.092Z,20.08
2023-03-14T13:24:41.243Z,20.07
2023-03-14T13:25:43.356Z,19.91
2023-03-14T13:26:46.192Z,19.82
2023-03-14T13:27:48.531Z,19.97
2023-03-14T13:28:50.500Z,19.96
2023-03-14T13:29:52.945Z,19.85
2023-03-14T13:31:00.410Z,19.71
2023-03-14T13:32:20.728Z,19.71
2023-03-14T13:33:24.404Z,19.51
2023-03-14T13:34:32.027Z,18.66
2023-03-14T13:35:46.420Z,18.76
2023-03-14T13:36:48.411Z,18.92
2023-03-14T13:38:09.875Z,16.75
2023-03-14T13:39:20.755Z,18.74
2023-03-14T13:40:33.770Z,18.60
2023-03-14T13:41:35.548Z,18.89
2023-03-14T13:42:37.945Z,19.07
2023-03-14T13:43:45.309Z,19.17
2023-03-14T13:44:47.699Z,19.03
2023-03-14T13:46:02.350Z,19.14
2023-03-14T13:47:07.271Z,19.04
2023-03-14T13:48:13.658Z,18.88
2023-03-14T13:49:26.263Z,19.01
2023-03-14T13:50:28.867Z,19.02
2023-03-14T13:51:32.107Z,18.65
2023-03-14T13:52:38.781Z,18.55
2023-03-14T13:53:49.186Z,18.94
2023-03-14T13:54:55.234Z,18.31
2023-03-14T13:55:57.135Z,18.34
2023-03-14T13:57:07.581Z,18.01
2023-03-14T13:58:30.319Z,18.06
2023-03-14T13:59:34.206Z,18.71
2023-03-14T14:00:36.146Z,18.34
2023-03-14T14:01:39.739Z,17.79
2023-03-14T14:02:41.723Z,18.71
2023-03-14T14:03:47.326Z,18.22
2023-03-14T14:04:49.220Z,18.94